Time;durP1;ratioP1;P1;durP2;ratioP2;P2;SDS_P1;SDS_P2;PMS_P1;PMS_P2;Temp;Humidity;BMP_temperature;BMP_pressure;BME280_temperature;BME280_humidity;BME280_pressure;Samples;Min_cycle;Max_cycle;Signal;HPM_P1;HPM_P2
2021/06/22 00:00:49;;;;;;;4.57;3.40;;;;;;;;;;5111194;27;20059;-39
2021/06/22 00:03:14;;;;;;;8.80;3.42;;;;;;;;;;5113192;27;20030;-39
2021/06/22 00:05:39;;;;;;;5.97;2.83;;;;;;;;;;5101800;27;20019;-39
2021/06/22 00:08:05;;;;;;;5.32;3.30;;;;;;;;;;5100893;27;20671;-40
2021/06/22 00:10:31;;;;;;;5.10;2.72;;;;;;;;;;5097822;27;20066;-39
2021/06/22 00:12:56;;;;;;;3.55;1.95;;;;;;;;;;5100731;27;20089;-40
2021/06/22 00:15:24;;;;;;;10.13;2.80;;;;;;;;;;5095722;28;20027;-40
2021/06/22 00:17:50;;;;;;;3.08;2.35;;;;;;;;;;5098332;27;20020;-39
2021/06/22 00:20:16;;;;;;;2.22;1.60;;;;;;;;;;5098746;27;20045;-39
2021/06/22 00:22:42;;;;;;;2.90;1.92;;;;;;;;;;5098935;27;20083;-39
2021/06/22 00:25:08;;;;;;;6.78;2.85;;;;;;;;;;5099887;27;20090;-40
2021/06/22 00:27:33;;;;;;;2.35;1.70;;;;;;;;;;5100704;27;20024;-39
2021/06/22 00:29:59;;;;;;;6.90;2.92;;;;;;;;;;5107493;27;20515;-39
2021/06/22 00:32:24;;;;;;;4.70;2.90;;;;;;;;;;5101518;27;20035;-39
2021/06/22 00:34:50;;;;;;;4.57;2.95;;;;;;;;;;5102005;27;20080;-39
2021/06/22 00:37:17;;;;;;;13.07;3.40;;;;;;;;;;5098885;27;20438;-39
2021/06/22 00:39:42;;;;;;;3.28;1.67;;;;;;;;;;5102744;27;20012;-39
2021/06/22 00:42:08;;;;;;;6.72;3.30;;;;;;;;;;5102520;27;20027;-39
2021/06/22 00:44:43;;;;;;;3.78;2.55;;;;;;;;;;5107787;27;20526;-39
2021/06/22 00:47:08;;;;;;;4.20;2.65;;;;;;;;;;5109401;27;20020;-40
2021/06/22 00:49:33;;;;;;;6.47;3.45;;;;;;;;;;5106151;27;20024;-39
2021/06/22 00:51:58;;;;;;;2.00;1.60;;;;;;;;;;5094059;27;20498;-39
2021/06/22 00:54:24;;;;;;;3.97;2.55;;;;;;;;;;5101772;28;20024;-39
2021/06/22 00:56:49;;;;;;;3.70;2.10;;;;;;;;;;5104473;27;20137;-39
2021/06/22 00:59:15;;;;;;;3.97;2.10;;;;;;;;;;5103127;27;20387;-41
2021/06/22 01:01:40;;;;;;;4.05;2.20;;;;;;;;;;5108446;27;20026;-39
2021/06/22 01:04:05;;;;;;;4.05;2.20;;;;;;;;;;5103076;27;20395;-39
2021/06/22 01:06:30;;;;;;;8.02;3.65;;;;;;;;;;5100451;27;20020;-39
2021/06/22 01:08:56;;;;;;;2.70;2.05;;;;;;;;;;5098131;27;20020;-40
2021/06/22 01:11:21;;;;;;;3.08;1.85;;;;;;;;;;5109937;27;20036;-39
2021/06/22 01:13:46;;;;;;;3.97;2.22;;;;;;;;;;5109636;27;20020;-39
2021/06/22 01:16:25;;;;;;;4.57;2.30;;;;;;;;;;5105179;27;20031;-39
2021/06/22 01:19:00;;;;;;;13.45;3.30;;;;;;;;;;5109956;27;20022;-39
2021/06/22 01:21:29;;;;;;;3.80;2.47;;;;;;;;;;5102556;27;20555;-39
2021/06/22 01:23:55;;;;;;;6.10;2.85;;;;;;;;;;5102253;27;20474;-39
2021/06/22 01:26:20;;;;;;;5.20;2.65;;;;;;;;;;5099880;27;20030;-39
2021/06/22 01:28:45;;;;;;;4.13;2.67;;;;;;;;;;5100010;27;20028;-39
2021/06/22 01:31:11;;;;;;;2.55;2.08;;;;;;;;;;5098369;27;20609;-39
2021/06/22 01:33:37;;;;;;;2.42;1.55;;;;;;;;;;5098575;27;20012;-39
2021/06/22 01:36:03;;;;;;;5.68;2.75;;;;;;;;;;5097662;27;20023;-39
2021/06/22 01:38:28;;;;;;;4.13;1.85;;;;;;;;;;5100160;27;20374;-39
2021/06/22 01:40:53;;;;;;;2.92;1.90;;;;;;;;;;5107414;27;20513;-39
2021/06/22 01:43:22;;;;;;;3.45;2.40;;;;;;;;;;5102453;27;20107;-39
2021/06/22 01:45:47;;;;;;;6.05;1.80;;;;;;;;;;5105960;27;20562;-39
2021/06/22 01:48:13;;;;;;;3.20;1.85;;;;;;;;;;5105949;27;20051;-39
2021/06/22 01:50:38;;;;;;;6.35;2.38;;;;;;;;;;5100363;27;20019;-39
2021/06/22 01:53:03;;;;;;;3.28;2.10;;;;;;;;;;5106392;27;20611;-39
2021/06/22 01:55:42;;;;;;;3.75;2.10;;;;;;;;;;5106102;27;20504;-39
2021/06/22 01:58:09;;;;;;;2.22;1.83;;;;;;;;;;5104998;27;20020;-39
2021/06/22 02:00:35;;;;;;;11.00;2.50;;;;;;;;;;5106793;28;20015;-39
2021/06/22 02:03:00;;;;;;;4.70;1.83;;;;;;;;;;5096024;28;20023;-39
2021/06/22 02:05:26;;;;;;;2.67;2.10;;;;;;;;;;5104573;28;20028;-39
2021/06/22 02:07:51;;;;;;;4.85;2.25;;;;;;;;;;5098603;27;20043;-40
2021/06/22 02:10:16;;;;;;;11.07;2.13;;;;;;;;;;5100759;27;20024;-39
2021/06/22 02:12:42;;;;;;;9.63;2.33;;;;;;;;;;5103150;28;20074;-39
2021/06/22 02:15:08;;;;;;;3.42;2.25;;;;;;;;;;5100683;27;20083;-39
2021/06/22 02:17:33;;;;;;;3.92;2.25;;;;;;;;;;5106813;27;20494;-39
2021/06/22 02:19:58;;;;;;;2.72;1.88;;;;;;;;;;5104002;27;20566;-38
2021/06/22 02:22:24;;;;;;;5.50;2.25;;;;;;;;;;5106704;27;20100;-39
2021/06/22 02:24:49;;;;;;;4.57;2.20;;;;;;;;;;5108696;27;20482;-39
2021/06/22 02:27:28;;;;;;;5.43;1.85;;;;;;;;;;5111599;27;20497;-39
2021/06/22 02:29:53;;;;;;;5.55;2.90;;;;;;;;;;5109422;27;20024;-39
2021/06/22 02:32:19;;;;;;;3.60;1.80;;;;;;;;;;5107381;27;20042;-38
2021/06/22 02:34:44;;;;;;;3.50;1.50;;;;;;;;;;5099977;27;20647;-39
2021/06/22 02:37:10;;;;;;;6.43;1.50;;;;;;;;;;5104114;27;20525;-39
2021/06/22 02:39:35;;;;;;;3.22;1.45;;;;;;;;;;5110169;27;20031;-39
2021/06/22 02:42:01;;;;;;;1.70;1.05;;;;;;;;;;5105939;27;20019;-39
2021/06/22 02:44:26;;;;;;;2.15;1.30;;;;;;;;;;5101259;28;20070;-39
2021/06/22 02:46:51;;;;;;;3.10;1.90;;;;;;;;;;5106380;27;20024;-39
2021/06/22 02:49:17;;;;;;;3.30;2.45;;;;;;;;;;5110209;27;20378;-39
2021/06/22 02:51:42;;;;;;;3.40;2.17;;;;;;;;;;5106541;27;20078;-39
2021/06/22 02:54:07;;;;;;;4.38;2.65;;;;;;;;;;5105258;27;20015;-39
2021/06/22 02:56:32;;;;;;;3.83;1.95;;;;;;;;;;5103600;27;20028;-39
2021/06/22 02:58:58;;;;;;;9.43;2.08;;;;;;;;;;5114803;27;20420;-39
2021/06/22 03:01:23;;;;;;;2.70;1.83;;;;;;;;;;5116603;27;20023;-39
2021/06/22 03:03:48;;;;;;;3.45;1.77;;;;;;;;;;5104630;27;20020;-39
2021/06/22 03:06:14;;;;;;;1.75;1.25;;;;;;;;;;5102583;27;20066;-39
2021/06/22 03:08:39;;;;;;;2.28;1.63;;;;;;;;;;5105587;27;20728;-39
2021/06/22 03:11:04;;;;;;;3.10;1.65;;;;;;;;;;5106417;27;20031;-39
2021/06/22 03:13:30;;;;;;;14.88;1.90;;;;;;;;;;5109012;27;20016;-39
2021/06/22 03:15:55;;;;;;;2.05;1.38;;;;;;;;;;5108604;27;20018;-39
2021/06/22 03:18:20;;;;;;;3.88;2.17;;;;;;;;;;5102512;27;20196;-39
2021/06/22 03:20:46;;;;;;;2.53;1.77;;;;;;;;;;5105184;27;20493;-39
2021/06/22 03:23:11;;;;;;;8.27;2.70;;;;;;;;;;5104369;27;20024;-39
2021/06/22 03:25:36;;;;;;;3.30;1.77;;;;;;;;;;5103966;27;20034;-39
2021/06/22 03:28:03;;;;;;;2.72;2.50;;;;;;;;;;5105020;27;20411;-38
2021/06/22 03:30:29;;;;;;;5.18;2.90;;;;;;;;;;5100992;27;20019;-38
2021/06/22 03:32:54;;;;;;;6.45;2.13;;;;;;;;;;5112656;27;20019;-38
2021/06/22 03:35:19;;;;;;;3.03;2.72;;;;;;;;;;5108053;27;20097;-38
2021/06/22 03:37:45;;;;;;;7.38;2.33;;;;;;;;;;5111919;27;20479;-39
2021/06/22 03:40:10;;;;;;;2.65;1.85;;;;;;;;;;5106912;27;20020;-39
2021/06/22 03:42:36;;;;;;;3.85;2.13;;;;;;;;;;5107027;27;20131;-38
2021/06/22 03:45:05;;;;;;;4.70;2.78;;;;;;;;;;5104663;27;20030;-38
2021/06/22 03:47:31;;;;;;;3.50;2.75;;;;;;;;;;5098577;27;20443;-39
2021/06/22 03:49:57;;;;;;;6.72;1.52;;;;;;;;;;5096423;27;20077;-39
2021/06/22 03:52:22;;;;;;;3.58;2.03;;;;;;;;;;5109281;27;20104;-39
2021/06/22 03:54:47;;;;;;;29.55;3.15;;;;;;;;;;5108005;27;20173;-39
2021/06/22 03:57:13;;;;;;;4.28;2.53;;;;;;;;;;5103586;27;20566;-39
2021/06/22 03:59:38;;;;;;;11.02;4.25;;;;;;;;;;5106653;27;20020;-39
2021/06/22 04:02:03;;;;;;;7.43;2.13;;;;;;;;;;5105482;27;20031;-39
2021/06/22 04:04:28;;;;;;;12.88;2.58;;;;;;;;;;5103197;27;20034;-39
2021/06/22 04:06:54;;;;;;;3.33;2.53;;;;;;;;;;5102955;27;20643;-39
2021/06/22 04:09:25;;;;;;;4.75;1.63;;;;;;;;;;5110200;27;20037;-41
2021/06/22 04:11:50;;;;;;;5.32;2.47;;;;;;;;;;5103974;27;20032;-39
2021/06/22 04:14:15;;;;;;;4.68;3.15;;;;;;;;;;5106205;27;20024;-39
2021/06/22 04:16:41;;;;;;;4.57;3.35;;;;;;;;;;5103741;27;20085;-39
2021/06/22 04:19:06;;;;;;;9.25;8.10;;;;;;;;;;5100217;27;20135;-39
2021/06/22 04:21:31;;;;;;;6.00;2.55;;;;;;;;;;5098790;27;20039;-38
2021/06/22 04:23:57;;;;;;;15.43;3.25;;;;;;;;;;5104131;27;20024;-39
2021/06/22 04:26:22;;;;;;;6.25;3.00;;;;;;;;;;5116358;27;20023;-39
2021/06/22 04:28:47;;;;;;;6.70;2.65;;;;;;;;;;5119569;27;20092;-39
2021/06/22 04:31:13;;;;;;;5.32;2.58;;;;;;;;;;5105513;27;20020;-39
2021/06/22 04:33:39;;;;;;;6.15;3.53;;;;;;;;;;5100541;27;20047;-39
2021/06/22 04:36:05;;;;;;;5.97;2.92;;;;;;;;;;5100341;27;20023;-39
2021/06/22 04:38:30;;;;;;;2.92;1.80;;;;;;;;;;5100819;27;20382;-39
2021/06/22 04:40:55;;;;;;;3.53;2.88;;;;;;;;;;5102542;27;20073;-39
2021/06/22 04:43:22;;;;;;;11.25;3.60;;;;;;;;;;5106512;27;20035;-39
2021/06/22 04:45:47;;;;;;;12.63;3.15;;;;;;;;;;5102396;27;20203;-39
2021/06/22 04:48:12;;;;;;;3.85;2.08;;;;;;;;;;5106868;27;20490;-39
2021/06/22 04:50:38;;;;;;;6.00;3.95;;;;;;;;;;5106585;27;20094;-39
2021/06/22 04:53:03;;;;;;;2.97;2.13;;;;;;;;;;5105708;27;20495;-39
2021/06/22 04:55:29;;;;;;;6.18;4.00;;;;;;;;;;5107030;27;20023;-39
2021/06/22 04:57:58;;;;;;;8.80;3.40;;;;;;;;;;5101797;28;20019;-39
2021/06/22 05:00:24;;;;;;;4.63;2.88;;;;;;;;;;5108578;27;20023;-39
2021/06/22 05:02:49;;;;;;;3.97;2.80;;;;;;;;;;5104089;27;20787;-39
2021/06/22 05:05:15;;;;;;;5.38;2.90;;;;;;;;;;5102108;27;20024;-38
2021/06/22 05:07:41;;;;;;;4.50;3.13;;;;;;;;;;5101196;28;20052;-39
2021/06/22 05:10:06;;;;;;;7.63;4.30;;;;;;;;;;5101749;27;20126;-39
2021/06/22 05:12:32;;;;;;;6.57;5.07;;;;;;;;;;5100221;27;20239;-39
2021/06/22 05:14:57;;;;;;;14.55;4.50;;;;;;;;;;5099921;27;20035;-39
2021/06/22 05:17:22;;;;;;;4.32;3.70;;;;;;;;;;5101035;27;20050;-39
2021/06/22 05:19:48;;;;;;;7.85;5.97;;;;;;;;;;5102127;27;20065;-40
2021/06/22 05:22:13;;;;;;;5.75;3.30;;;;;;;;;;5103638;27;20031;-39
2021/06/22 05:24:39;;;;;;;6.78;4.25;;;;;;;;;;5108043;27;20033;-40
2021/06/22 05:27:04;;;;;;;12.88;4.50;;;;;;;;;;5112138;27;20016;-37
2021/06/22 05:29:30;;;;;;;5.70;2.88;;;;;;;;;;5106074;27;20095;-39
2021/06/22 05:31:55;;;;;;;4.95;3.33;;;;;;;;;;5101311;27;20627;-38
2021/06/22 05:34:21;;;;;;;4.45;2.65;;;;;;;;;;5099055;27;20585;-38
2021/06/22 05:36:46;;;;;;;6.93;4.55;;;;;;;;;;5098412;27;20035;-37
2021/06/22 05:39:11;;;;;;;9.00;4.28;;;;;;;;;;5102849;27;20020;-38
2021/06/22 05:41:37;;;;;;;5.20;3.00;;;;;;;;;;5098877;27;20085;-38
2021/06/22 05:44:02;;;;;;;12.30;3.03;;;;;;;;;;5108431;27;20043;-38
2021/06/22 05:46:27;;;;;;;5.43;3.78;;;;;;;;;;5099326;28;20554;-39
2021/06/22 05:48:53;;;;;;;16.67;4.05;;;;;;;;;;5100587;27;20530;-38
2021/06/22 05:51:18;;;;;;;9.63;3.67;;;;;;;;;;5097715;28;20059;-38
2021/06/22 05:53:44;;;;;;;7.68;4.18;;;;;;;;;;5102516;27;20022;-37
2021/06/22 05:56:09;;;;;;;7.40;3.03;;;;;;;;;;5108761;28;20014;-38
2021/06/22 05:58:34;;;;;;;16.45;4.43;;;;;;;;;;5107772;27;20020;-38
2021/06/22 06:01:00;;;;;;;7.10;5.20;;;;;;;;;;5105142;27;20012;-38
2021/06/22 06:03:25;;;;;;;10.68;7.13;;;;;;;;;;5096511;28;20028;-38
2021/06/22 06:05:50;;;;;;;17.75;4.80;;;;;;;;;;5102641;28;20134;-38
2021/06/22 06:08:16;;;;;;;7.20;5.88;;;;;;;;;;5100365;28;20119;-39
2021/06/22 06:10:41;;;;;;;39.55;7.78;;;;;;;;;;5099183;27;20024;-38
2021/06/22 06:13:06;;;;;;;16.13;6.50;;;;;;;;;;5102325;28;20043;-39
2021/06/22 06:15:32;;;;;;;8.82;4.75;;;;;;;;;;5109326;28;20605;-37
2021/06/22 06:17:57;;;;;;;22.13;5.78;;;;;;;;;;5112176;28;20024;-36
2021/06/22 06:20:23;;;;;;;15.93;5.78;;;;;;;;;;5099970;28;20642;-38
2021/06/22 06:22:49;;;;;;;22.55;5.68;;;;;;;;;;5103523;28;20027;-37
2021/06/22 06:25:15;;;;;;;8.73;3.85;;;;;;;;;;5102560;28;20025;-38
2021/06/22 06:27:53;;;;;;;8.88;4.90;;;;;;;;;;5103244;28;20101;-38
2021/06/22 06:30:21;;;;;;;14.73;4.38;;;;;;;;;;5100446;28;20035;-38
2021/06/22 06:32:47;;;;;;;11.00;5.07;;;;;;;;;;5104658;28;20019;-38
2021/06/22 06:35:12;;;;;;;16.75;5.78;;;;;;;;;;5096868;28;20024;-38
2021/06/22 06:37:38;;;;;;;14.52;2.40;;;;;;;;;;5099557;28;20024;-38
2021/06/22 06:40:04;;;;;;;11.43;3.35;;;;;;;;;;5106382;28;20027;-38
2021/06/22 06:42:29;;;;;;;4.90;3.33;;;;;;;;;;5093694;28;20039;-38
2021/06/22 06:44:54;;;;;;;7.30;3.38;;;;;;;;;;5094274;28;20057;-38
2021/06/22 06:47:20;;;;;;;11.10;5.05;;;;;;;;;;5092686;28;20016;-38
2021/06/22 06:49:45;;;;;;;7.72;4.10;;;;;;;;;;5095899;28;20069;-38
2021/06/22 06:52:10;;;;;;;21.33;5.55;;;;;;;;;;5096375;28;20031;-38
2021/06/22 06:54:36;;;;;;;6.68;2.85;;;;;;;;;;5099099;27;20015;-41
2021/06/22 06:57:01;;;;;;;7.93;4.35;;;;;;;;;;5096582;28;20027;-41
2021/06/22 06:59:26;;;;;;;5.18;3.40;;;;;;;;;;5098486;28;20487;-39
2021/06/22 07:01:52;;;;;;;16.52;8.52;;;;;;;;;;5092745;28;20390;-38
2021/06/22 07:04:17;;;;;;;10.75;4.88;;;;;;;;;;5099341;27;20475;-37
2021/06/22 07:06:42;;;;;;;7.85;3.80;;;;;;;;;;5097201;27;20486;-38
2021/06/22 07:09:08;;;;;;;13.98;4.47;;;;;;;;;;5098207;27;20016;-38
2021/06/22 07:11:34;;;;;;;10.10;4.53;;;;;;;;;;5103435;27;20020;-38
2021/06/22 07:13:59;;;;;;;6.63;5.07;;;;;;;;;;5099308;27;20056;-38
2021/06/22 07:16:24;;;;;;;11.65;3.72;;;;;;;;;;5099543;27;20026;-38
2021/06/22 07:18:50;;;;;;;12.98;2.53;;;;;;;;;;5099176;27;20030;-42
2021/06/22 07:21:16;;;;;;;13.85;3.47;;;;;;;;;;5099468;27;20559;-39
2021/06/22 07:23:42;;;;;;;17.23;6.03;;;;;;;;;;5101452;27;20089;-38
2021/06/22 07:26:07;;;;;;;6.90;2.88;;;;;;;;;;5099452;27;20023;-39
2021/06/22 07:28:33;;;;;;;14.02;3.92;;;;;;;;;;5098382;27;20020;-38
2021/06/22 07:30:59;;;;;;;23.73;6.57;;;;;;;;;;5100379;27;20745;-46
2021/06/22 07:33:24;;;;;;;13.07;4.13;;;;;;;;;;5098977;27;20035;-45
2021/06/22 07:35:49;;;;;;;9.75;4.25;;;;;;;;;;5101606;27;20055;-38
2021/06/22 07:38:15;;;;;;;5.88;3.13;;;;;;;;;;5098586;27;20031;-38
2021/06/22 07:40:40;;;;;;;5.55;2.88;;;;;;;;;;5106966;27;20027;-39
2021/06/22 07:43:05;;;;;;;12.15;3.10;;;;;;;;;;5101352;27;20403;-39
2021/06/22 07:45:32;;;;;;;8.65;3.47;;;;;;;;;;5111879;27;20237;-38
2021/06/22 07:47:57;;;;;;;7.82;2.10;;;;;;;;;;5108131;27;20113;-39
2021/06/22 07:50:23;;;;;;;5.70;2.38;;;;;;;;;;5103394;27;20098;-38
2021/06/22 07:52:48;;;;;;;4.88;2.65;;;;;;;;;;5102229;27;20024;-37
2021/06/22 07:55:14;;;;;;;6.93;1.70;;;;;;;;;;5100980;27;20807;-39
2021/06/22 07:57:43;;;;;;;3.45;1.80;;;;;;;;;;5107701;27;20046;-39
2021/06/22 08:00:14;;;;;;;7.85;2.70;;;;;;;;;;5110296;27;20471;-46
2021/06/22 08:02:39;;;;;;;4.95;2.35;;;;;;;;;;5095499;27;20054;-40
2021/06/22 08:05:05;;;;;;;12.73;2.00;;;;;;;;;;5098225;27;20482;-40
2021/06/22 08:07:30;;;;;;;3.47;1.88;;;;;;;;;;5100367;27;20057;-38
2021/06/22 08:09:55;;;;;;;4.75;1.67;;;;;;;;;;5100066;27;20016;-39
2021/06/22 08:12:21;;;;;;;15.55;2.63;;;;;;;;;;5096106;27;20073;-39
2021/06/22 08:14:46;;;;;;;3.08;1.55;;;;;;;;;;5096854;27;20034;-39
2021/06/22 08:17:11;;;;;;;7.10;2.10;;;;;;;;;;5098942;27;20104;-38
2021/06/22 08:19:37;;;;;;;1.08;0.70;;;;;;;;;;5099853;27;20458;-39
2021/06/22 08:22:02;;;;;;;23.83;1.80;;;;;;;;;;5102292;27;20115;-40
2021/06/22 08:24:27;;;;;;;4.95;1.70;;;;;;;;;;5098567;27;20516;-39
2021/06/22 08:26:53;;;;;;;4.10;2.00;;;;;;;;;;5099065;27;20019;-39
2021/06/22 08:29:18;;;;;;;5.82;1.60;;;;;;;;;;5101220;27;20020;-39
2021/06/22 08:31:43;;;;;;;14.07;2.58;;;;;;;;;;5107551;27;20044;-38
2021/06/22 08:34:09;;;;;;;4.03;1.65;;;;;;;;;;5106691;27;20544;-39
2021/06/22 08:36:34;;;;;;;8.68;5.80;;;;;;;;;;5098791;27;20471;-39
2021/06/22 08:38:59;;;;;;;8.48;4.57;;;;;;;;;;5108098;27;20077;-40
2021/06/22 08:41:25;;;;;;;7.38;2.25;;;;;;;;;;5109922;27;20049;-39
2021/06/22 08:43:51;;;;;;;14.27;3.10;;;;;;;;;;5107913;27;20490;-39
2021/06/22 08:46:17;;;;;;;5.43;2.30;;;;;;;;;;5097026;27;20012;-39
2021/06/22 08:48:42;;;;;;;3.88;1.65;;;;;;;;;;5105339;27;20485;-41
2021/06/22 08:51:07;;;;;;;9.65;1.90;;;;;;;;;;5103522;27;20089;-39
2021/06/22 08:53:33;;;;;;;9.07;3.10;;;;;;;;;;5101568;27;20499;-42
2021/06/22 08:55:58;;;;;;;2.80;1.13;;;;;;;;;;5105073;27;20032;-43
2021/06/22 08:58:23;;;;;;;6.22;3.08;;;;;;;;;;5101156;27;20461;-41
2021/06/22 09:00:50;;;;;;;2.92;1.13;;;;;;;;;;5096750;27;20447;-40
2021/06/22 09:03:16;;;;;;;7.90;2.63;;;;;;;;;;5101105;27;20665;-40
2021/06/22 09:05:44;;;;;;;5.75;2.65;;;;;;;;;;5097920;27;20073;-40
2021/06/22 09:08:17;;;;;;;5.05;0.88;;;;;;;;;;5104306;27;20478;-40
2021/06/22 09:10:42;;;;;;;3.38;1.42;;;;;;;;;;5101052;27;20112;-42
2021/06/22 09:13:10;;;;;;;5.40;2.58;;;;;;;;;;5098538;27;20668;-39
2021/06/22 09:15:37;;;;;;;7.65;1.67;;;;;;;;;;5102241;27;20027;-40
2021/06/22 09:18:02;;;;;;;10.93;2.95;;;;;;;;;;5094211;27;20047;-39
2021/06/22 09:20:31;;;;;;;5.15;1.70;;;;;;;;;;5093468;27;20458;-40
2021/06/22 09:23:14;;;;;;;3.17;1.08;;;;;;;;;;5098267;27;20020;-40
2021/06/22 09:25:40;;;;;;;3.60;1.13;;;;;;;;;;5098269;27;20085;-41
2021/06/22 09:28:06;;;;;;;5.90;1.75;;;;;;;;;;5100327;27;20026;-40
2021/06/22 09:30:38;;;;;;;4.10;1.38;;;;;;;;;;5099450;27;20023;-40
2021/06/22 09:33:12;;;;;;;3.53;1.67;;;;;;;;;;5098787;27;20024;-40
2021/06/22 09:35:37;;;;;;;1.42;0.65;;;;;;;;;;5106495;27;20019;-40
2021/06/22 09:38:03;;;;;;;1.90;0.55;;;;;;;;;;5102591;27;20483;-41
2021/06/22 09:40:29;;;;;;;7.65;2.33;;;;;;;;;;5100335;27;20028;-41
2021/06/22 09:42:56;;;;;;;3.25;1.90;;;;;;;;;;5097175;27;20118;-41
2021/06/22 09:45:21;;;;;;;1.35;0.73;;;;;;;;;;5101507;27;20502;-45
2021/06/22 09:47:47;;;;;;;2.28;1.25;;;;;;;;;;5113618;27;20019;-40
2021/06/22 09:50:30;;;;;;;2.08;1.10;;;;;;;;;;5104631;27;20028;-43
2021/06/22 09:53:16;;;;;;;10.55;1.83;;;;;;;;;;5110192;27;20023;-40
2021/06/22 09:55:41;;;;;;;6.95;1.88;;;;;;;;;;5100680;27;20047;-43
2021/06/22 09:58:07;;;;;;;0.82;0.32;;;;;;;;;;5100488;27;20079;-40
2021/06/22 10:00:38;;;;;;;5.68;0.68;;;;;;;;;;5099557;28;20023;-39
2021/06/22 10:03:04;;;;;;;6.60;0.75;;;;;;;;;;5100677;28;20019;-40
2021/06/22 10:05:29;;;;;;;7.72;1.52;;;;;;;;;;5105959;27;20078;-38
2021/06/22 10:07:58;;;;;;;1.42;0.70;;;;;;;;;;5102610;27;20043;-40
2021/06/22 10:10:39;;;;;;;1.40;0.32;;;;;;;;;;5100221;28;20139;-39
2021/06/22 10:13:04;;;;;;;;;;;;;;;;;;5097962;27;20027;-41
2021/06/22 10:15:30;;;;;;;0.82;0.40;;;;;;;;;;5103372;28;20267;-39
2021/06/22 10:17:55;;;;;;;2.25;0.60;;;;;;;;;;5092595;28;20050;-40
2021/06/22 10:20:21;;;;;;;1.70;0.68;;;;;;;;;;5106856;28;20020;-42
2021/06/22 10:22:47;;;;;;;1.80;0.90;;;;;;;;;;5110087;28;20024;-41
2021/06/22 10:25:14;;;;;;;1.17;0.38;;;;;;;;;;5105817;28;20117;-40
2021/06/22 10:27:39;;;;;;;4.63;1.05;;;;;;;;;;5106998;28;20053;-40
2021/06/22 10:30:05;;;;;;;2.35;1.15;;;;;;;;;;5102697;28;20059;-38
2021/06/22 10:32:31;;;;;;;4.63;0.80;;;;;;;;;;5103581;28;20020;-40
2021/06/22 10:34:58;;;;;;;3.20;1.02;;;;;;;;;;5096096;28;20081;-41
2021/06/22 10:37:27;;;;;;;7.90;1.38;;;;;;;;;;5102746;27;20028;-39
2021/06/22 10:39:58;;;;;;;8.48;2.47;;;;;;;;;;5103327;27;20028;-40
2021/06/22 10:42:23;;;;;;;11.35;1.80;;;;;;;;;;5106420;27;20030;-38
2021/06/22 10:44:59;;;;;;;3.03;1.33;;;;;;;;;;5109825;27;20020;-41
2021/06/22 10:47:26;;;;;;;4.93;1.17;;;;;;;;;;5103431;27;20026;-40
2021/06/22 10:50:19;;;;;;;3.63;0.85;;;;;;;;;;5105968;27;20031;-41
2021/06/22 10:52:45;;;;;;;0.80;0.43;;;;;;;;;;5085784;27;20076;-41
2021/06/22 10:55:23;;;;;;;8.27;0.80;;;;;;;;;;5110967;27;20023;-39
2021/06/22 10:58:06;;;;;;;3.10;2.13;;;;;;;;;;5106985;27;20026;-39
2021/06/22 11:00:42;;;;;;;4.93;1.48;;;;;;;;;;5105019;27;20028;-38
2021/06/22 11:03:22;;;;;;;8.27;1.27;;;;;;;;;;5101486;27;20476;-37
2021/06/22 11:05:48;;;;;;;;;;;;;;;;;;5104375;27;20486;-38
2021/06/22 11:08:16;;;;;;;1.98;1.23;;;;;;;;;;5097007;28;20016;-36
2021/06/22 11:10:48;;;;;;;4.95;1.23;;;;;;;;;;5102857;27;20028;-38
2021/06/22 11:13:32;;;;;;;0.85;0.75;;;;;;;;;;5105508;27;20054;-40
2021/06/22 11:15:59;;;;;;;8.75;1.27;;;;;;;;;;5093921;27;20052;-40
2021/06/22 11:18:25;;;;;;;1.33;0.43;;;;;;;;;;5099671;27;20024;-39
2021/06/22 11:20:53;;;;;;;4.22;1.45;;;;;;;;;;5099104;27;20486;-40
2021/06/22 11:23:22;;;;;;;2.10;0.77;;;;;;;;;;5100490;27;20114;-39
2021/06/22 11:26:03;;;;;;;1.98;0.68;;;;;;;;;;5101865;27;20031;-39
2021/06/22 11:28:49;;;;;;;1.42;0.43;;;;;;;;;;5101276;27;20582;-39
2021/06/22 11:31:30;;;;;;;3.75;0.68;;;;;;;;;;5105245;27;20023;-40
2021/06/22 11:34:02;;;;;;;0.65;0.45;;;;;;;;;;5095903;27;20110;-40
2021/06/22 11:36:28;;;;;;;3.67;1.83;;;;;;;;;;5102533;27;20058;-38
2021/06/22 11:39:06;;;;;;;4.97;1.52;;;;;;;;;;5103583;27;20099;-39
2021/06/22 11:41:31;;;;;;;3.10;2.17;;;;;;;;;;5101410;27;20100;-39
2021/06/22 11:44:09;;;;;;;4.78;1.05;;;;;;;;;;5102374;27;20012;-40
2021/06/22 11:46:34;;;;;;;3.33;1.10;;;;;;;;;;5105319;27;20506;-41
2021/06/22 11:49:00;;;;;;;2.10;0.70;;;;;;;;;;5099670;27;20031;-38
2021/06/22 11:51:44;;;;;;;3.13;0.98;;;;;;;;;;5099728;27;20312;-39
2021/06/22 11:54:09;;;;;;;7.65;0.80;;;;;;;;;;5101714;27;20016;-39
2021/06/22 11:56:35;;;;;;;5.00;0.60;;;;;;;;;;5100460;27;20391;-40
2021/06/22 11:59:01;;;;;;;1.27;0.55;;;;;;;;;;5102668;27;20027;-40
2021/06/22 12:01:26;;;;;;;7.35;1.13;;;;;;;;;;5098434;27;20038;-39
2021/06/22 12:03:54;;;;;;;2.35;0.95;;;;;;;;;;5102294;27;20024;-39
2021/06/22 12:06:23;;;;;;;5.00;1.05;;;;;;;;;;5104971;27;20029;-40
2021/06/22 12:08:48;;;;;;;2.30;0.43;;;;;;;;;;5104918;27;20067;-39
2021/06/22 12:11:35;;;;;;;6.00;0.93;;;;;;;;;;5105642;27;20042;-41
2021/06/22 12:14:00;;;;;;;4.90;0.43;;;;;;;;;;5107695;27;20067;-39
2021/06/22 12:16:27;;;;;;;0.85;0.45;;;;;;;;;;5101931;27;20046;-40
2021/06/22 12:18:56;;;;;;;9.75;1.63;;;;;;;;;;5099062;27;20084;-40
2021/06/22 12:21:22;;;;;;;1.30;0.50;;;;;;;;;;5102426;27;20028;-40
2021/06/22 12:23:47;;;;;;;8.07;0.95;;;;;;;;;;5098497;27;20031;-40
2021/06/22 12:26:13;;;;;;;1.30;0.85;;;;;;;;;;5101279;27;20030;-38
2021/06/22 12:28:39;;;;;;;3.15;1.40;;;;;;;;;;5100583;27;20026;-40
2021/06/22 12:31:05;;;;;;;0.70;0.40;;;;;;;;;;5100615;27;20090;-41
2021/06/22 12:33:36;;;;;;;1.77;0.73;;;;;;;;;;5102651;27;20031;-40
2021/06/22 12:36:02;;;;;;;5.68;1.50;;;;;;;;;;5101740;27;20053;-45
2021/06/22 12:38:28;;;;;;;8.40;0.90;;;;;;;;;;5104877;27;20390;-42
2021/06/22 12:41:00;;;;;;;2.65;0.90;;;;;;;;;;5104068;27;20027;-41
2021/06/22 12:43:58;;;;;;;1.20;0.43;;;;;;;;;;5103481;27;20479;-43
2021/06/22 12:46:28;;;;;;;0.30;0.17;;;;;;;;;;5081090;27;20032;-40
2021/06/22 12:49:07;;;;;;;0.40;0.25;;;;;;;;;;5101384;28;20019;-41
2021/06/22 12:51:36;;;;;;;1.42;0.70;;;;;;;;;;5107252;27;20039;-39
2021/06/22 12:54:05;;;;;;;0.60;0.43;;;;;;;;;;5104051;27;20016;-42
2021/06/22 12:56:31;;;;;;;1.92;1.20;;;;;;;;;;5102573;27;20020;-39
2021/06/22 12:59:01;;;;;;;5.07;0.80;;;;;;;;;;5105631;27;20016;-41
2021/06/22 13:01:37;;;;;;;2.17;0.90;;;;;;;;;;5099310;27;20020;-43
2021/06/22 13:04:03;;;;;;;0.77;0.38;;;;;;;;;;5102884;27;20399;-39
2021/06/22 13:06:37;;;;;;;0.70;0.22;;;;;;;;;;5100826;27;20012;-39
2021/06/22 13:09:07;;;;;;;1.95;0.70;;;;;;;;;;5102040;27;20012;-40
2021/06/22 13:11:33;;;;;;;1.45;0.82;;;;;;;;;;5098581;27;20031;-40
2021/06/22 13:14:13;;;;;;;1.92;0.98;;;;;;;;;;5101307;27;20047;-40
2021/06/22 13:16:39;;;;;;;2.17;1.15;;;;;;;;;;5098862;28;20023;-40
2021/06/22 13:19:09;;;;;;;4.78;0.80;;;;;;;;;;5100207;27;20019;-40
2021/06/22 13:21:34;;;;;;;19.80;7.22;;;;;;;;;;5099606;27;20020;-45
2021/06/22 13:24:00;;;;;;;1.23;0.77;;;;;;;;;;5095069;27;20023;-40
2021/06/22 13:26:26;;;;;;;5.35;1.48;;;;;;;;;;5104707;27;20026;-43
2021/06/22 13:28:58;;;;;;;1.27;0.73;;;;;;;;;;5108087;27;20048;-40
2021/06/22 13:31:26;;;;;;;4.72;1.67;;;;;;;;;;5102114;27;20031;-41
2021/06/22 13:33:58;;;;;;;1.48;0.63;;;;;;;;;;5100702;27;20023;-42
2021/06/22 13:36:24;;;;;;;2.00;0.90;;;;;;;;;;5097546;28;20027;-40
2021/06/22 13:39:10;;;;;;;2.83;1.38;;;;;;;;;;5102153;27;20019;-40
2021/06/22 13:41:45;;;;;;;2.95;0.95;;;;;;;;;;5100932;28;20024;-40
2021/06/22 13:44:11;;;;;;;2.42;1.05;;;;;;;;;;5100397;27;20532;-41
2021/06/22 13:46:37;;;;;;;3.28;0.82;;;;;;;;;;5096935;27;20459;-39
2021/06/22 13:49:02;;;;;;;2.72;0.52;;;;;;;;;;5099786;28;20047;-40
2021/06/22 13:51:32;;;;;;;3.85;0.82;;;;;;;;;;5100456;27;20440;-40
2021/06/22 13:54:03;;;;;;;9.02;5.88;;;;;;;;;;5104388;27;20024;-40
2021/06/22 13:56:29;;;;;;;1.92;0.95;;;;;;;;;;5104570;27;20031;-39
2021/06/22 13:58:55;;;;;;;1.65;1.13;;;;;;;;;;5100940;27;20522;-39
2021/06/22 14:01:20;;;;;;;3.53;1.10;;;;;;;;;;5099980;27;20028;-40
2021/06/22 14:03:45;;;;;;;2.75;0.85;;;;;;;;;;5099467;27;20019;-40
2021/06/22 14:06:11;;;;;;;3.50;2.08;;;;;;;;;;5097096;27;20052;-39
2021/06/22 14:08:36;;;;;;;0.73;0.40;;;;;;;;;;5102614;28;20045;-40
2021/06/22 14:11:01;;;;;;;1.58;0.70;;;;;;;;;;5102125;27;20458;-38
2021/06/22 14:13:29;;;;;;;2.75;1.02;;;;;;;;;;5095351;28;20104;-40
2021/06/22 14:15:55;;;;;;;3.55;1.02;;;;;;;;;;5093114;28;20123;-40
2021/06/22 14:18:21;;;;;;;6.95;1.98;;;;;;;;;;5096940;28;20150;-41
2021/06/22 14:20:46;;;;;;;8.48;1.40;;;;;;;;;;5101125;28;20484;-40
2021/06/22 14:23:12;;;;;;;4.95;1.27;;;;;;;;;;5098685;28;20245;-42
2021/06/22 14:25:39;;;;;;;8.85;3.33;;;;;;;;;;5102142;28;20395;-42
2021/06/22 14:28:05;;;;;;;0.90;0.40;;;;;;;;;;5098130;28;20092;-41
2021/06/22 14:30:30;;;;;;;2.70;1.60;;;;;;;;;;5097849;28;20023;-41
2021/06/22 14:32:56;;;;;;;2.78;1.48;;;;;;;;;;5095906;28;20494;-45
2021/06/22 14:35:22;;;;;;;4.93;1.73;;;;;;;;;;5100057;28;20023;-43
2021/06/22 14:37:47;;;;;;;3.58;0.60;;;;;;;;;;5098690;28;20936;-40
2021/06/22 14:40:14;;;;;;;1.83;1.00;;;;;;;;;;5095490;28;20088;-40